KHVS/HVS METAR and TAF weather

Enter ICAO airport designator
Station Type Date Time Source
KHVS METAR 2020/12/05 05:15 UTC NOAA

KHVS 050515Z AUTO 26011G17KT 10SM FEW036 SCT080 BKN090 11/09 A2985 RMK AO2


Station Type Date Time Source
KHVS Decoded METAR 2020/12/05 05:15 UTC NOAA

Station name not available
Dec 05, 2020 - 12:15 AM EST / 2020.12.05 0515 UTC
Wind: from the W (260 degrees) at 13 MPH (11 KT) gusting to 20 MPH (17 KT):0
Visibility: 10 mile(s):0
Sky conditions: mostly cloudy
Temperature: 51 F (11 C)
Dew Point: 48 F (9 C)
Relative Humidity: 87%
Pressure (altimeter): 29.85 in. Hg (1010 hPa)
ob: KHVS 050515Z AUTO 26011G17KT 10SM FEW036 SCT080 BKN090 11/09 A2985 RMK AO2
cycle: 5

Station Type Date Time Source
KHVS TAF UTC NOAA

Error!

Example: see airport list